aviador You're here:

KSMX Decoded Metar

SANTA MARIA in CA, USA
Report Time2017-10-23 23:51:00
UTC Time2017-10-24 00:25:52
Flight Rules vfr VFR
Wind330° at 07 kt
W.Decomp.*RWY 30: 6.7 kt HW 1.9 kt RCW
RWY 02: 3.1 kt HW 6.3 kt LCW
W.Rank330° ranks 5
Current wind is below 330° avg. (7.3)
Visibility9999 m
Phenomena:N/A
Clouds:N/A
Expected CloudBase > 10,400 ft AGL from Temp-Dew spread
CeilingNone
Temp32°C (ISA +17)
Dew Point06°C (20% RH)
Heat Index30.0°C
AAT28.6°C
QNH1018 hPa
Density Alt2,201 ft
Elevation243 ft
Report Wrong Elevation
Raw Report
METAR KSMX 232351Z 33007KT 10SM CLR 32/06 A3005 RMK AO2 SLP175 T03170061
10389 20278 55001 $=

Extra information for KSMX:More info

Metar Taf Metar & Taf Last 4 Metars F.Rules Stats Wind Profile Meteogram Temp Stats Airport Information Weather charts Add Link Nearby VenuesMetar ALERT Operation Metar Decoded Social comments

AIRNAV info for KSMX